sensor_id;sensor_type;location;lat;lon;timestamp;pressure;altitude;pressure_sealevel;temperature;humidity
36222;BME280;22266;52.340;4.962;2023-02-03T00:00:49;102377.66;;;8.69;81.37
36222;BME280;22266;52.340;4.962;2023-02-03T00:03:15;102380.06;;;8.72;81.58
36222;BME280;22266;52.340;4.962;2023-02-03T00:05:42;102396.72;;;8.76;81.22
36222;BME280;22266;52.340;4.962;2023-02-03T00:08:10;102391.63;;;8.73;81.02
36222;BME280;22266;52.340;4.962;2023-02-03T00:10:37;102381.59;;;8.75;81.16
36222;BME280;22266;52.340;4.962;2023-02-03T00:13:05;102388.25;;;8.71;81.21
36222;BME280;22266;52.340;4.962;2023-02-03T00:15:32;102397.41;;;8.78;80.87
36222;BME280;22266;52.340;4.962;2023-02-03T00:17:58;102404.50;;;8.69;80.98
36222;BME280;22266;52.340;4.962;2023-02-03T00:20:25;102396.56;;;8.77;81.01
36222;BME280;22266;52.340;4.962;2023-02-03T00:22:52;102388.69;;;8.76;80.78
36222;BME280;22266;52.340;4.962;2023-02-03T00:25:18;102400.25;;;8.76;80.27
36222;BME280;22266;52.340;4.962;2023-02-03T00:27:46;102401.78;;;8.79;80.39
36222;BME280;22266;52.340;4.962;2023-02-03T00:30:13;102405.75;;;8.84;80.19
36222;BME280;22266;52.340;4.962;2023-02-03T00:32:39;102419.03;;;8.86;80.41
36222;BME280;22266;52.340;4.962;2023-02-03T00:35:06;102420.88;;;8.85;80.26
36222;BME280;22266;52.340;4.962;2023-02-03T00:37:35;102412.97;;;8.84;79.95
36222;BME280;22266;52.340;4.962;2023-02-03T00:40:01;102421.59;;;8.87;79.89
36222;BME280;22266;52.340;4.962;2023-02-03T00:42:29;102421.72;;;8.86;79.79
36222;BME280;22266;52.340;4.962;2023-02-03T00:44:56;102409.56;;;8.82;80.43
36222;BME280;22266;52.340;4.962;2023-02-03T00:47:22;102411.97;;;8.85;79.69
36222;BME280;22266;52.340;4.962;2023-02-03T00:49:49;102399.38;;;8.85;80.22
36222;BME280;22266;52.340;4.962;2023-02-03T00:52:15;102400.50;;;8.83;79.55
36222;BME280;22266;52.340;4.962;2023-02-03T00:54:42;102380.03;;;8.82;80.04
36222;BME280;22266;52.340;4.962;2023-02-03T00:57:08;102374.09;;;8.78;80.12
36222;BME280;22266;52.340;4.962;2023-02-03T00:59:36;102390.63;;;8.83;79.98
36222;BME280;22266;52.340;4.962;2023-02-03T01:02:03;102379.63;;;8.77;80.03
36222;BME280;22266;52.340;4.962;2023-02-03T01:04:30;102395.56;;;8.78;80.07
36222;BME280;22266;52.340;4.962;2023-02-03T01:06:56;102397.97;;;8.81;80.06
36222;BME280;22266;52.340;4.962;2023-02-03T01:09:25;102398.69;;;8.83;79.34
36222;BME280;22266;52.340;4.962;2023-02-03T01:11:52;102388.63;;;8.85;79.17
36222;BME280;22266;52.340;4.962;2023-02-03T01:14:19;102376.78;;;8.88;79.15
36222;BME280;22266;52.340;4.962;2023-02-03T01:16:45;102385.41;;;8.82;79.38
36222;BME280;22266;52.340;4.962;2023-02-03T01:19:12;102381.72;;;8.83;78.80
36222;BME280;22266;52.340;4.962;2023-02-03T01:21:39;102367.16;;;8.85;79.19
36222;BME280;22266;52.340;4.962;2023-02-03T01:24:06;102374.22;;;8.86;78.59
36222;BME280;22266;52.340;4.962;2023-02-03T01:26:37;102355.41;;;8.86;78.66
36222;BME280;22266;52.340;4.962;2023-02-03T01:29:03;102363.50;;;8.77;78.32
36222;BME280;22266;52.340;4.962;2023-02-03T01:31:40;102369.88;;;8.76;78.37
36222;BME280;22266;52.340;4.962;2023-02-03T01:34:11;102367.03;;;8.77;78.00
36222;BME280;22266;52.340;4.962;2023-02-03T01:36:39;102368.56;;;8.89;78.33
36222;BME280;22266;52.340;4.962;2023-02-03T01:39:05;102362.19;;;8.90;77.60
36222;BME280;22266;52.340;4.962;2023-02-03T01:41:34;102372.94;;;8.90;77.80
36222;BME280;22266;52.340;4.962;2023-02-03T01:44:34;102366.59;;;8.91;77.85
36222;BME280;22266;52.340;4.962;2023-02-03T01:47:02;102344.22;;;8.91;77.60
36222;BME280;22266;52.340;4.962;2023-02-03T01:49:34;102337.72;;;8.94;77.62
36222;BME280;22266;52.340;4.962;2023-02-03T01:52:02;102347.34;;;8.96;77.74
36222;BME280;22266;52.340;4.962;2023-02-03T01:54:38;102345.91;;;9.02;77.28
36222;BME280;22266;52.340;4.962;2023-02-03T01:57:14;102336.16;;;9.01;77.55
36222;BME280;22266;52.340;4.962;2023-02-03T01:59:42;102324.75;;;8.89;77.12
36222;BME280;22266;52.340;4.962;2023-02-03T02:02:10;102334.38;;;8.91;77.59
36222;BME280;22266;52.340;4.962;2023-02-03T02:04:54;102323.31;;;8.95;76.67
36222;BME280;22266;52.340;4.962;2023-02-03T02:07:23;102324.41;;;9.02;76.96
36222;BME280;22266;52.340;4.962;2023-02-03T02:09:50;102332.31;;;9.03;76.72
36222;BME280;22266;52.340;4.962;2023-02-03T02:12:17;102343.09;;;8.94;77.18
36222;BME280;22266;52.340;4.962;2023-02-03T02:14:44;102357.13;;;8.87;77.00
36222;BME280;22266;52.340;4.962;2023-02-03T02:17:25;102348.03;;;8.98;76.46
36222;BME280;22266;52.340;4.962;2023-02-03T02:20:10;102345.22;;;9.00;76.82
36222;BME280;22266;52.340;4.962;2023-02-03T02:25:50;102318.78;;;8.95;77.18
36222;BME280;22266;52.340;4.962;2023-02-03T02:31:42;102327.25;;;9.00;77.20
36222;BME280;22266;52.340;4.962;2023-02-03T02:37:06;102311.16;;;9.00;77.71
36222;BME280;22266;52.340;4.962;2023-02-03T02:40:08;102305.34;;;8.95;77.30
36222;BME280;22266;52.340;4.962;2023-02-03T02:43:07;102317.38;;;8.91;77.83
36222;BME280;22266;52.340;4.962;2023-02-03T02:45:49;102303.22;;;8.99;77.65
36222;BME280;22266;52.340;4.962;2023-02-03T02:48:20;102321.44;;;9.05;77.71
36222;BME280;22266;52.340;4.962;2023-02-03T02:50:51;102304.38;;;8.96;77.86
36222;BME280;22266;52.340;4.962;2023-02-03T02:53:21;102310.97;;;9.02;77.59
36222;BME280;22266;52.340;4.962;2023-02-03T02:55:51;102299.69;;;8.98;77.54
36222;BME280;22266;52.340;4.962;2023-02-03T02:58:19;102305.78;;;8.90;78.41
36222;BME280;22266;52.340;4.962;2023-02-03T03:00:47;102321.34;;;8.97;77.92
36222;BME280;22266;52.340;4.962;2023-02-03T03:03:16;102323.31;;;8.95;77.86
36222;BME280;22266;52.340;4.962;2023-02-03T03:05:50;102318.81;;;8.85;78.29
36222;BME280;22266;52.340;4.962;2023-02-03T03:08:27;102321.78;;;8.92;78.52
36222;BME280;22266;52.340;4.962;2023-02-03T03:10:55;102314.16;;;8.87;78.44
36222;BME280;22266;52.340;4.962;2023-02-03T03:13:28;102327.28;;;8.90;78.48
36222;BME280;22266;52.340;4.962;2023-02-03T03:15:58;102315.59;;;8.82;78.54
36222;BME280;22266;52.340;4.962;2023-02-03T03:18:31;102327.28;;;8.90;78.53
36222;BME280;22266;52.340;4.962;2023-02-03T03:21:00;102331.06;;;8.98;77.97
36222;BME280;22266;52.340;4.962;2023-02-03T03:23:35;102324.88;;;8.97;77.91
36222;BME280;22266;52.340;4.962;2023-02-03T03:26:12;102337.16;;;9.00;77.65
36222;BME280;22266;52.340;4.962;2023-02-03T03:28:48;102339.69;;;9.01;77.40
36222;BME280;22266;52.340;4.962;2023-02-03T03:31:18;102311.16;;;8.90;77.81
36222;BME280;22266;52.340;4.962;2023-02-03T03:33:46;102313.28;;;8.87;78.44
36222;BME280;22266;52.340;4.962;2023-02-03T03:36:21;102322.75;;;8.91;77.94
36222;BME280;22266;52.340;4.962;2023-02-03T03:38:57;102309.03;;;8.94;78.20
36222;BME280;22266;52.340;4.962;2023-02-03T03:42:43;102310.09;;;8.83;78.74
36222;BME280;22266;52.340;4.962;2023-02-03T03:44:53;102321.63;;;8.94;78.53
36222;BME280;22266;52.340;4.962;2023-02-03T03:49:52;102332.38;;;8.94;78.34
36222;BME280;22266;52.340;4.962;2023-02-03T03:52:25;102332.06;;;8.97;78.23
36222;BME280;22266;52.340;4.962;2023-02-03T03:54:54;102319.28;;;8.81;78.75
36222;BME280;22266;52.340;4.962;2023-02-03T03:57:32;102326.44;;;8.90;78.40
36222;BME280;22266;52.340;4.962;2023-02-03T04:00:02;102328.38;;;8.98;77.99
36222;BME280;22266;52.340;4.962;2023-02-03T04:02:38;102332.91;;;8.97;77.72
36222;BME280;22266;52.340;4.962;2023-02-03T04:05:07;102316.25;;;8.94;77.93
36222;BME280;22266;52.340;4.962;2023-02-03T04:07:40;102313.56;;;8.94;78.13
36222;BME280;22266;52.340;4.962;2023-02-03T04:12:39;102332.38;;;8.94;77.67
36222;BME280;22266;52.340;4.962;2023-02-03T04:15:06;102345.22;;;9.00;77.86
36222;BME280;22266;52.340;4.962;2023-02-03T04:17:33;102338.13;;;8.99;77.41
36222;BME280;22266;52.340;4.962;2023-02-03T04:20:03;102331.25;;;8.86;77.99
36222;BME280;22266;52.340;4.962;2023-02-03T04:22:29;102335.50;;;8.89;78.17
36222;BME280;22266;52.340;4.962;2023-02-03T04:24:55;102317.38;;;8.91;78.06
36222;BME280;22266;52.340;4.962;2023-02-03T04:27:24;102328.38;;;8.98;77.90
36222;BME280;22266;52.340;4.962;2023-02-03T04:29:51;102313.84;;;8.90;78.13
36222;BME280;22266;52.340;4.962;2023-02-03T04:32:18;102320.38;;;8.88;78.07
36222;BME280;22266;52.340;4.962;2023-02-03T04:34:45;102327.28;;;8.90;77.70
36222;BME280;22266;52.340;4.962;2023-02-03T04:37:11;102323.47;;;8.93;78.33
36222;BME280;22266;52.340;4.962;2023-02-03T04:39:38;102327.28;;;8.90;77.84
36222;BME280;22266;52.340;4.962;2023-02-03T04:42:04;102308.94;;;8.86;78.30
36222;BME280;22266;52.340;4.962;2023-02-03T04:44:30;102304.72;;;8.83;78.65
36222;BME280;22266;52.340;4.962;2023-02-03T04:46:57;102305.78;;;8.90;77.85
36222;BME280;22266;52.340;4.962;2023-02-03T04:49:23;102300.19;;;8.84;78.27
36222;BME280;22266;52.340;4.962;2023-02-03T04:51:50;102291.56;;;8.80;78.83
36222;BME280;22266;52.340;4.962;2023-02-03T04:54:16;102297.22;;;8.77;78.84
36222;BME280;22266;52.340;4.962;2023-02-03T04:56:43;102292.13;;;8.84;78.57
36222;BME280;22266;52.340;4.962;2023-02-03T04:59:09;102306.13;;;8.87;78.45
36222;BME280;22266;52.340;4.962;2023-02-03T05:01:35;102304.56;;;8.85;78.56
36222;BME280;22266;52.340;4.962;2023-02-03T05:04:02;102298.91;;;8.88;78.14
36222;BME280;22266;52.340;4.962;2023-02-03T05:06:28;102300.03;;;8.85;78.11
36222;BME280;22266;52.340;4.962;2023-02-03T05:08:57;102316.44;;;8.82;78.25
36222;BME280;22266;52.340;4.962;2023-02-03T05:11:23;102315.75;;;8.80;78.28
36222;BME280;22266;52.340;4.962;2023-02-03T05:13:50;102304.03;;;8.72;78.71
36222;BME280;22266;52.340;4.962;2023-02-03T05:16:17;102320.41;;;8.78;78.26
36222;BME280;22266;52.340;4.962;2023-02-03T05:18:43;102313.34;;;8.77;78.73
36222;BME280;22266;52.340;4.962;2023-02-03T05:21:10;102319.44;;;8.79;78.65
36222;BME280;22266;52.340;4.962;2023-02-03T05:23:36;102315.59;;;8.82;78.10
36222;BME280;22266;52.340;4.962;2023-02-03T05:26:03;102303.00;;;8.82;78.36
36222;BME280;22266;52.340;4.962;2023-02-03T05:28:30;102315.75;;;8.80;78.66
36222;BME280;22266;52.340;4.962;2023-02-03T05:30:57;102317.97;;;8.85;78.57
36222;BME280;22266;52.340;4.962;2023-02-03T05:33:24;102310.78;;;8.85;78.32
36222;BME280;22266;52.340;4.962;2023-02-03T05:35:51;102316.44;;;8.82;78.07
36222;BME280;22266;52.340;4.962;2023-02-03T05:38:17;102313.75;;;8.82;78.36
36222;BME280;22266;52.340;4.962;2023-02-03T05:40:47;102318.44;;;8.80;78.07
36222;BME280;22266;52.340;4.962;2023-02-03T05:43:32;102317.88;;;8.77;78.28
36222;BME280;22266;52.340;4.962;2023-02-03T05:46:00;102326.09;;;8.75;78.51
36222;BME280;22266;52.340;4.962;2023-02-03T05:48:27;102321.84;;;8.73;78.77
36222;BME280;22266;52.340;4.962;2023-02-03T05:50:53;102315.47;;;8.74;78.44
36222;BME280;22266;52.340;4.962;2023-02-03T05:53:20;102319.84;;;8.75;78.64
36222;BME280;22266;52.340;4.962;2023-02-03T05:55:46;102334.25;;;8.74;78.76
36222;BME280;22266;52.340;4.962;2023-02-03T05:58:13;102327.06;;;8.74;78.68
36222;BME280;22266;52.340;4.962;2023-02-03T06:00:39;102316.91;;;8.68;78.55
36222;BME280;22266;52.340;4.962;2023-02-03T06:03:06;102319.88;;;8.65;78.86
36222;BME280;22266;52.340;4.962;2023-02-03T06:05:33;102320.59;;;8.67;78.93
36222;BME280;22266;52.340;4.962;2023-02-03T06:08:00;102302.66;;;8.68;79.02
36222;BME280;22266;52.340;4.962;2023-02-03T06:10:26;102319.03;;;8.64;78.93
36222;BME280;22266;52.340;4.962;2023-02-03T06:12:53;102338.81;;;8.63;79.07
36222;BME280;22266;52.340;4.962;2023-02-03T06:15:20;102336.69;;;8.67;78.81
36222;BME280;22266;52.340;4.962;2023-02-03T06:17:47;102341.06;;;8.68;78.84
36222;BME280;22266;52.340;4.962;2023-02-03T06:20:16;102329.34;;;8.69;78.66
36222;BME280;22266;52.340;4.962;2023-02-03T06:22:43;102333.00;;;8.68;79.22
36222;BME280;22266;52.340;4.962;2023-02-03T06:25:10;102340.34;;;8.66;78.47
36222;BME280;22266;52.340;4.962;2023-02-03T06:27:38;102330.91;;;8.62;79.11
36222;BME280;22266;52.340;4.962;2023-02-03T06:30:05;102335.13;;;8.64;79.28
36222;BME280;22266;52.340;4.962;2023-02-03T06:32:32;102344.59;;;8.69;78.71
36222;BME280;22266;52.340;4.962;2023-02-03T06:34:58;102348.28;;;8.68;79.12
36222;BME280;22266;52.340;4.962;2023-02-03T06:37:25;102338.81;;;8.63;79.01
36222;BME280;22266;52.340;4.962;2023-02-03T06:39:51;102351.25;;;8.64;79.37
36222;BME280;22266;52.340;4.962;2023-02-03T06:42:17;102350.41;;;8.64;79.05
36222;BME280;22266;52.340;4.962;2023-02-03T06:44:44;102362.97;;;8.63;79.13
36222;BME280;22266;52.340;4.962;2023-02-03T06:47:10;102362.13;;;8.63;79.48
36222;BME280;22266;52.340;4.962;2023-02-03T06:49:37;102362.81;;;8.65;79.36
36222;BME280;22266;52.340;4.962;2023-02-03T06:52:03;102380.06;;;8.62;79.29
36222;BME280;22266;52.340;4.962;2023-02-03T06:54:30;102380.78;;;8.64;79.01
36222;BME280;22266;52.340;4.962;2023-02-03T06:56:56;102388.53;;;8.68;78.86
36222;BME280;22266;52.340;4.962;2023-02-03T06:59:22;102391.91;;;8.70;79.21
36222;BME280;22266;52.340;4.962;2023-02-03T07:01:49;102380.50;;;8.68;79.20
36222;BME280;22266;52.340;4.962;2023-02-03T07:04:15;102382.75;;;8.72;79.21
36222;BME280;22266;52.340;4.962;2023-02-03T07:06:42;102374.69;;;8.72;79.50
36222;BME280;22266;52.340;4.962;2023-02-03T07:09:08;102379.91;;;8.74;79.25
36222;BME280;22266;52.340;4.962;2023-02-03T07:11:35;102378.78;;;8.76;79.42
36222;BME280;22266;52.340;4.962;2023-02-03T07:14:01;102376.53;;;8.72;78.97
36222;BME280;22266;52.340;4.962;2023-02-03T07:16:28;102373.84;;;8.72;79.12
36222;BME280;22266;52.340;4.962;2023-02-03T07:18:54;102373.84;;;8.72;79.68
36222;BME280;22266;52.340;4.962;2023-02-03T07:21:21;102370.44;;;8.70;79.17
36222;BME280;22266;52.340;4.962;2023-02-03T07:23:48;102374.69;;;8.62;80.09
36222;BME280;22266;52.340;4.962;2023-02-03T07:26:16;102383.59;;;8.73;80.16
36222;BME280;22266;52.340;4.962;2023-02-03T07:28:42;102373.69;;;8.73;79.25
36222;BME280;22266;52.340;4.962;2023-02-03T07:31:09;102381.47;;;8.76;79.11
36222;BME280;22266;52.340;4.962;2023-02-03T07:33:37;102371.84;;;8.74;79.66
36222;BME280;22266;52.340;4.962;2023-02-03T07:36:04;102381.31;;;8.78;79.30
36222;BME280;22266;52.340;4.962;2023-02-03T07:38:30;102383.72;;;8.81;79.06
36222;BME280;22266;52.340;4.962;2023-02-03T07:40:57;102379.34;;;8.80;79.18
36222;BME280;22266;52.340;4.962;2023-02-03T07:43:23;102381.31;;;8.78;79.44
36222;BME280;22266;52.340;4.962;2023-02-03T07:45:50;102387.69;;;8.77;79.73
36222;BME280;22266;52.340;4.962;2023-02-03T07:48:16;102390.91;;;8.80;79.44
36222;BME280;22266;52.340;4.962;2023-02-03T07:50:43;102391.47;;;8.84;79.45
36222;BME280;22266;52.340;4.962;2023-02-03T07:53:10;102386.78;;;8.86;79.01
36222;BME280;22266;52.340;4.962;2023-02-03T07:55:37;102395.69;;;8.86;79.50
36222;BME280;22266;52.340;4.962;2023-02-03T07:58:04;102396.97;;;8.82;79.37
36222;BME280;22266;52.340;4.962;2023-02-03T08:00:31;102392.03;;;8.87;79.46
36222;BME280;22266;52.340;4.962;2023-02-03T08:02:57;102396.53;;;8.87;79.57
36222;BME280;22266;52.340;4.962;2023-02-03T08:05:24;102412.09;;;8.93;79.54
36222;BME280;22266;52.340;4.962;2023-02-03T08:07:50;102418.59;;;8.90;79.12
36222;BME280;22266;52.340;4.962;2023-02-03T08:10:17;102415.06;;;8.90;79.15
36222;BME280;22266;52.340;4.962;2023-02-03T08:12:43;102436.81;;;8.97;79.54
36222;BME280;22266;52.340;4.962;2023-02-03T08:15:12;102442.47;;;8.94;79.56
36222;BME280;22266;52.340;4.962;2023-02-03T08:17:39;102423.50;;;8.95;79.47
36222;BME280;22266;52.340;4.962;2023-02-03T08:20:08;102430.16;;;8.91;79.58
36222;BME280;22266;52.340;4.962;2023-02-03T08:22:35;102449.69;;;8.93;79.89
36222;BME280;22266;52.340;4.962;2023-02-03T08:25:01;102455.34;;;9.00;79.65
36222;BME280;22266;52.340;4.962;2023-02-03T08:27:30;102449.09;;;8.99;79.50
36222;BME280;22266;52.340;4.962;2023-02-03T08:29:57;102453.19;;;9.03;79.04
36222;BME280;22266;52.340;4.962;2023-02-03T08:32:25;102461.81;;;9.07;78.94
36222;BME280;22266;52.340;4.962;2023-02-03T08:34:52;102446.41;;;8.99;79.38
36222;BME280;22266;52.340;4.962;2023-02-03T08:37:20;102469.06;;;8.97;79.65
36222;BME280;22266;52.340;4.962;2023-02-03T08:39:50;102470.75;;;8.98;79.85
36222;BME280;22266;52.340;4.962;2023-02-03T08:42:18;102465.94;;;9.01;79.40
36222;BME280;22266;52.340;4.962;2023-02-03T08:44:45;102454.06;;;9.04;80.00
36222;BME280;22266;52.340;4.962;2023-02-03T08:47:11;102471.59;;;9.08;79.38
36222;BME280;22266;52.340;4.962;2023-02-03T08:49:38;102466.91;;;9.10;79.30
36222;BME280;22266;52.340;4.962;2023-02-03T08:52:10;102460.97;;;9.16;79.61
36222;BME280;22266;52.340;4.962;2023-02-03T08:54:37;102473.56;;;9.15;79.56
36222;BME280;22266;52.340;4.962;2023-02-03T08:57:04;102468.59;;;9.21;78.71
36222;BME280;22266;52.340;4.962;2023-02-03T08:59:32;102470.44;;;9.20;79.45
36222;BME280;22266;52.340;4.962;2023-02-03T09:02:13;102469.44;;;9.21;79.07
36222;BME280;22266;52.340;4.962;2023-02-03T09:04:39;102483.00;;;9.20;79.26
36222;BME280;22266;52.340;4.962;2023-02-03T09:07:06;102487.22;;;9.22;79.05
36222;BME280;22266;52.340;4.962;2023-02-03T09:09:32;102490.31;;;9.27;79.01
36222;BME280;22266;52.340;4.962;2023-02-03T09:11:59;102478.44;;;9.30;78.95
36222;BME280;22266;52.340;4.962;2023-02-03T09:14:31;102478.00;;;9.34;78.64
36222;BME280;22266;52.340;4.962;2023-02-03T09:17:00;102501.63;;;9.40;78.08
36222;BME280;22266;52.340;4.962;2023-02-03T09:19:26;102491.84;;;9.39;78.19
36222;BME280;22266;52.340;4.962;2023-02-03T09:21:53;102490.56;;;9.44;78.26
36222;BME280;22266;52.340;4.962;2023-02-03T09:24:20;102499.19;;;9.47;78.32
36222;BME280;22266;52.340;4.962;2023-02-03T09:26:47;102495.94;;;9.44;77.99
36222;BME280;22266;52.340;4.962;2023-02-03T09:29:14;102499.34;;;9.46;78.04
36222;BME280;22266;52.340;4.962;2023-02-03T09:31:40;102495.38;;;9.50;78.16
36222;BME280;22266;52.340;4.962;2023-02-03T09:34:07;102496.81;;;9.44;78.11
36222;BME280;22266;52.340;4.962;2023-02-03T09:36:34;102507.41;;;9.46;77.95
36222;BME280;22266;52.340;4.962;2023-02-03T09:39:00;102515.47;;;9.46;77.76
36222;BME280;22266;52.340;4.962;2023-02-03T09:45:04;102510.38;;;9.43;77.87
36222;BME280;22266;52.340;4.962;2023-02-03T09:47:34;102516.16;;;9.48;78.24
36222;BME280;22266;52.340;4.962;2023-02-03T09:50:05;102521.25;;;9.51;77.88
36222;BME280;22266;52.340;4.962;2023-02-03T09:52:34;102517.16;;;9.56;77.47
36222;BME280;22266;52.340;4.962;2023-02-03T09:55:24;102520.50;;;9.58;77.73
36222;BME280;22266;52.340;4.962;2023-02-03T09:58:05;102520.69;;;9.57;77.35
36222;BME280;22266;52.340;4.962;2023-02-03T10:00:39;102524.88;;;9.59;77.32
36222;BME280;22266;52.340;4.962;2023-02-03T10:03:16;102536.94;;;9.55;77.53
36222;BME280;22266;52.340;4.962;2023-02-03T10:19:02;102538.94;;;9.53;77.87
36222;BME280;22266;52.340;4.962;2023-02-03T10:24:06;102534.69;;;9.51;78.41
36222;BME280;22266;52.340;4.962;2023-02-03T10:26:36;102555.63;;;9.57;77.96
36222;BME280;22266;52.340;4.962;2023-02-03T10:29:25;102560.69;;;9.60;77.83
36222;BME280;22266;52.340;4.962;2023-02-03T10:31:54;102557.75;;;9.53;78.20
36222;BME280;22266;52.340;4.962;2023-02-03T10:34:24;102559.28;;;9.56;78.32
36222;BME280;22266;52.340;4.962;2023-02-03T10:37:01;102573.84;;;9.63;78.36
36222;BME280;22266;52.340;4.962;2023-02-03T10:39:30;102583.03;;;9.70;77.96
36222;BME280;22266;52.340;4.962;2023-02-03T10:41:59;102577.22;;;9.75;77.58
36222;BME280;22266;52.340;4.962;2023-02-03T10:44:35;102565.78;;;9.73;77.63
36222;BME280;22266;52.340;4.962;2023-02-03T10:47:18;102573.56;;;9.66;78.19
36222;BME280;22266;52.340;4.962;2023-02-03T10:49:49;102576.53;;;9.73;78.03
36222;BME280;22266;52.340;4.962;2023-02-03T10:52:31;102585.44;;;9.73;77.92
36222;BME280;22266;52.340;4.962;2023-02-03T10:55:07;102589.41;;;9.69;77.73
36222;BME280;22266;52.340;4.962;2023-02-03T10:57:54;102592.94;;;9.70;78.12
36222;BME280;22266;52.340;4.962;2023-02-03T11:00:27;102596.31;;;9.72;77.92
36222;BME280;22266;52.340;4.962;2023-02-03T11:03:19;102603.97;;;9.66;77.83
36222;BME280;22266;52.340;4.962;2023-02-03T11:06:06;102600.84;;;9.71;78.27
36222;BME280;22266;52.340;4.962;2023-02-03T11:08:34;102601.25;;;9.76;77.85
36222;BME280;22266;52.340;4.962;2023-02-03T11:11:07;102602.69;;;9.80;77.61
36222;BME280;22266;52.340;4.962;2023-02-03T11:13:34;102598.00;;;9.82;77.36
36222;BME280;22266;52.340;4.962;2023-02-03T11:16:17;102598.28;;;9.79;77.91
36222;BME280;22266;52.340;4.962;2023-02-03T11:21:20;102589.81;;;9.74;78.20
36222;BME280;22266;52.340;4.962;2023-02-03T11:24:02;102598.28;;;9.79;77.83
36222;BME280;22266;52.340;4.962;2023-02-03T11:26:38;102600.69;;;9.82;77.65
36222;BME280;22266;52.340;4.962;2023-02-03T11:29:06;102597.59;;;9.77;77.98
36222;BME280;22266;52.340;4.962;2023-02-03T11:31:46;102608.91;;;9.81;77.68
36222;BME280;22266;52.340;4.962;2023-02-03T11:34:44;102613.75;;;9.77;78.09
36222;BME280;22266;52.340;4.962;2023-02-03T11:37:24;102608.38;;;9.68;77.80
36222;BME280;22266;52.340;4.962;2023-02-03T11:42:36;102605.13;;;9.64;78.60
36222;BME280;22266;52.340;4.962;2023-02-03T11:45:25;102598.72;;;9.75;78.85
36222;BME280;22266;52.340;4.962;2023-02-03T11:50:37;102610.50;;;9.74;78.65
36222;BME280;22266;52.340;4.962;2023-02-03T11:53:13;102595.88;;;9.76;78.57
36222;BME280;22266;52.340;4.962;2023-02-03T12:13:43;102636.41;;;9.55;79.94
36222;BME280;22266;52.340;4.962;2023-02-03T12:19:53;102636.81;;;9.70;80.01
36222;BME280;22266;52.340;4.962;2023-02-03T12:25:24;102637.09;;;9.67;79.40
36222;BME280;22266;52.340;4.962;2023-02-03T12:32:04;102637.81;;;9.69;79.60
36222;BME280;22266;52.340;4.962;2023-02-03T12:36:35;102641.91;;;9.63;79.96
36222;BME280;22266;52.340;4.962;2023-02-03T12:39:14;102659.03;;;9.72;79.73
36222;BME280;22266;52.340;4.962;2023-02-03T12:41:56;102656.91;;;9.76;79.50
36222;BME280;22266;52.340;4.962;2023-02-03T12:44:30;102655.78;;;9.78;79.68
36222;BME280;22266;52.340;4.962;2023-02-03T12:47:56;102655.31;;;9.83;79.32
36222;BME280;22266;52.340;4.962;2023-02-03T12:50:02;102671.19;;;9.86;79.03
36222;BME280;22266;52.340;4.962;2023-02-03T12:52:53;102672.75;;;9.88;78.85
36222;BME280;22266;52.340;4.962;2023-02-03T12:55:43;102679.81;;;9.89;78.74
36222;BME280;22266;52.340;4.962;2023-02-03T12:58:24;102683.06;;;9.83;78.53
36222;BME280;22266;52.340;4.962;2023-02-03T13:01:03;102682.38;;;9.81;78.64
36222;BME280;22266;52.340;4.962;2023-02-03T13:03:32;102688.31;;;9.85;78.70
36222;BME280;22266;52.340;4.962;2023-02-03T13:06:14;102702.59;;;9.76;78.73
36222;BME280;22266;52.340;4.962;2023-02-03T13:08:49;102705.03;;;9.79;77.96
36222;BME280;22266;52.340;4.962;2023-02-03T13:11:25;102702.06;;;9.82;78.28
36222;BME280;22266;52.340;4.962;2023-02-03T13:13:57;102705.88;;;9.79;78.36
36222;BME280;22266;52.340;4.962;2023-02-03T13:16:31;102706.88;;;9.78;78.12
36222;BME280;22266;52.340;4.962;2023-02-03T13:19:12;102703.59;;;9.75;78.04
36222;BME280;22266;52.340;4.962;2023-02-03T13:21:40;102706.88;;;9.69;78.19
36222;BME280;22266;52.340;4.962;2023-02-03T13:24:09;102708.44;;;9.71;78.59
36222;BME280;22266;52.340;4.962;2023-02-03T13:27:07;102712.81;;;9.72;78.26
36222;BME280;22266;52.340;4.962;2023-02-03T13:30:07;102707.72;;;9.69;78.43
36222;BME280;22266;52.340;4.962;2023-02-03T13:38:23;102706.31;;;9.65;78.03
36222;BME280;22266;52.340;4.962;2023-02-03T13:41:10;102710.13;;;9.62;77.56
36222;BME280;22266;52.340;4.962;2023-02-03T13:43:49;102698.25;;;9.65;77.95
36222;BME280;22266;52.340;4.962;2023-02-03T13:48:52;102699.66;;;9.69;76.67
36222;BME280;22266;52.340;4.962;2023-02-03T13:51:21;102695.41;;;9.66;76.81
36222;BME280;22266;52.340;4.962;2023-02-03T13:53:50;102695.69;;;9.63;76.36
36222;BME280;22266;52.340;4.962;2023-02-03T13:56:22;102708.44;;;9.61;76.53
36222;BME280;22266;52.340;4.962;2023-02-03T13:59:04;102700.38;;;9.61;76.21
36222;BME280;22266;52.340;4.962;2023-02-03T14:01:35;102714.38;;;9.65;76.01
36222;BME280;22266;52.340;4.962;2023-02-03T14:04:04;102719.75;;;9.65;75.72
36222;BME280;22266;52.340;4.962;2023-02-03T14:11:51;102710.97;;;9.63;75.01
36222;BME280;22266;52.340;4.962;2023-02-03T14:17:06;102709.72;;;9.57;74.52
36222;BME280;22266;52.340;4.962;2023-02-03T14:22:08;102720.47;;;9.67;73.85
36222;BME280;22266;52.340;4.962;2023-02-03T14:24:43;102730.22;;;9.68;73.50
36222;BME280;22266;52.340;4.962;2023-02-03T14:27:20;102738.00;;;9.71;73.42
36222;BME280;22266;52.340;4.962;2023-02-03T14:30:07;102742.81;;;9.68;73.11
36222;BME280;22266;52.340;4.962;2023-02-03T14:32:49;102749.03;;;9.68;72.96
36222;BME280;22266;52.340;4.962;2023-02-03T14:35:19;102738.84;;;9.72;72.65
36222;BME280;22266;52.340;4.962;2023-02-03T14:37:51;102739.00;;;9.70;72.15
36222;BME280;22266;52.340;4.962;2023-02-03T14:40:34;102738.44;;;9.66;71.68
36222;BME280;22266;52.340;4.962;2023-02-03T14:46:11;102745.50;;;9.68;70.92
36222;BME280;22266;52.340;4.962;2023-02-03T15:00:27;102760.22;;;9.63;69.44
36222;BME280;22266;52.340;4.962;2023-02-03T15:05:38;102759.94;;;9.57;70.02
36222;BME280;22266;52.340;4.962;2023-02-03T15:10:56;102767.00;;;9.68;71.09